sensor_id;sensor_type;location;lat;lon;timestamp;pressure;altitude;pressure_sealevel;temperature;humidity
29733;BME280;16643;43.158;25.302;2023-01-09T00:00:46;98349.53;;;2.38;95.87
29733;BME280;16643;43.158;25.302;2023-01-09T00:03:12;98339.31;;;2.36;96.49
29733;BME280;16643;43.158;25.302;2023-01-09T00:05:37;98344.44;;;2.36;96.69
29733;BME280;16643;43.158;25.302;2023-01-09T00:08:03;98339.28;;;2.33;96.70
29733;BME280;16643;43.158;25.302;2023-01-09T00:10:29;98342.69;;;2.31;97.14
29733;BME280;16643;43.158;25.302;2023-01-09T00:12:54;98336.69;;;2.32;96.59
29733;BME280;16643;43.158;25.302;2023-01-09T00:15:19;98336.69;;;2.32;95.42
29733;BME280;16643;43.158;25.302;2023-01-09T00:17:45;98334.13;;;2.29;95.88
29733;BME280;16643;43.158;25.302;2023-01-09T00:20:12;98327.25;;;2.26;96.53
29733;BME280;16643;43.158;25.302;2023-01-09T00:22:38;98322.13;;;2.28;96.78
29733;BME280;16643;43.158;25.302;2023-01-09T00:25:04;98325.56;;;2.25;96.85
29733;BME280;16643;43.158;25.302;2023-01-09T00:27:32;98326.41;;;2.29;97.97
29733;BME280;16643;43.158;25.302;2023-01-09T00:29:58;98323.88;;;2.30;97.43
29733;BME280;16643;43.158;25.302;2023-01-09T00:32:24;98332.47;;;2.35;96.10
29733;BME280;16643;43.158;25.302;2023-01-09T00:34:49;98325.56;;;2.30;96.45
29733;BME280;16643;43.158;25.302;2023-01-09T00:37:15;98325.56;;;2.24;97.31
29733;BME280;16643;43.158;25.302;2023-01-09T00:39:40;98329.81;;;2.22;97.37
29733;BME280;16643;43.158;25.302;2023-01-09T00:42:07;98332.19;;;1.97;94.39
29733;BME280;16643;43.158;25.302;2023-01-09T00:44:36;98340.53;;;1.69;93.65
29733;BME280;16643;43.158;25.302;2023-01-09T00:47:04;98332.63;;;1.46;96.17
29733;BME280;16643;43.158;25.302;2023-01-09T00:49:33;98335.34;;;1.64;94.54
29733;BME280;16643;43.158;25.302;2023-01-09T00:52:00;98336.13;;;1.54;94.06
29733;BME280;16643;43.158;25.302;2023-01-09T00:54:26;98323.09;;;1.30;96.92
29733;BME280;16643;43.158;25.302;2023-01-09T00:56:52;98329.81;;;1.20;97.28
29733;BME280;16643;43.158;25.302;2023-01-09T00:59:19;98329.72;;;1.14;98.82
29733;BME280;16643;43.158;25.302;2023-01-09T01:01:44;98319.50;;;1.11;97.23
29733;BME280;16643;43.158;25.302;2023-01-09T01:04:10;98322.06;;;1.14;96.93
29733;BME280;16643;43.158;25.302;2023-01-09T01:06:54;98317.91;;;1.25;96.25
29733;BME280;16643;43.158;25.302;2023-01-09T01:09:38;98311.03;;;1.18;96.87
29733;BME280;16643;43.158;25.302;2023-01-09T01:12:03;98311.94;;;1.25;98.14
29733;BME280;16643;43.158;25.302;2023-01-09T01:14:32;98316.19;;;1.21;97.17
29733;BME280;16643;43.158;25.302;2023-01-09T01:16:57;98305.97;;;1.23;98.39
29733;BME280;16643;43.158;25.302;2023-01-09T01:19:23;98305.09;;;1.22;99.76
29733;BME280;16643;43.158;25.302;2023-01-09T01:21:48;98302.53;;;1.22;99.77
29733;BME280;16643;43.158;25.302;2023-01-09T01:24:14;98288.91;;;1.26;99.24
29733;BME280;16643;43.158;25.302;2023-01-09T01:26:42;98308.53;;;1.23;98.50
29733;BME280;16643;43.158;25.302;2023-01-09T01:29:07;98297.44;;;1.27;98.12
29733;BME280;16643;43.158;25.302;2023-01-09T01:31:33;98288.84;;;1.19;98.84
29733;BME280;16643;43.158;25.302;2023-01-09T01:33:58;98286.34;;;1.22;98.02
29733;BME280;16643;43.158;25.302;2023-01-09T01:36:24;98287.19;;;1.25;98.10
29733;BME280;16643;43.158;25.302;2023-01-09T01:38:49;98276.00;;;1.14;98.99
29733;BME280;16643;43.158;25.302;2023-01-09T01:41:14;98271.69;;;1.07;98.76
29733;BME280;16643;43.158;25.302;2023-01-09T01:43:58;98269.06;;;1.04;100.00
29733;BME280;16643;43.158;25.302;2023-01-09T01:46:24;98264.91;;;1.15;100.00
29733;BME280;16643;43.158;25.302;2023-01-09T01:48:54;98259.00;;;1.19;100.00
29733;BME280;16643;43.158;25.302;2023-01-09T01:51:22;98253.78;;;1.08;100.00
29733;BME280;16643;43.158;25.302;2023-01-09T01:53:50;98246.94;;;1.06;100.00
29733;BME280;16643;43.158;25.302;2023-01-09T01:56:22;98241.88;;;1.12;99.34
29733;BME280;16643;43.158;25.302;2023-01-09T02:01:14;98247.94;;;1.22;100.00
29733;BME280;16643;43.158;25.302;2023-01-09T02:03:40;98235.97;;;1.21;99.16
29733;BME280;16643;43.158;25.302;2023-01-09T02:06:06;98236.00;;;1.22;99.43
29733;BME280;16643;43.158;25.302;2023-01-09T02:08:32;98231.66;;;1.15;100.00
29733;BME280;16643;43.158;25.302;2023-01-09T02:10:58;98229.13;;;1.17;100.00
29733;BME280;16643;43.158;25.302;2023-01-09T02:13:23;98223.13;;;1.15;100.00
29733;BME280;16643;43.158;25.302;2023-01-09T02:20:51;98208.91;;;0.55;100.00
29733;BME280;16643;43.158;25.302;2023-01-09T02:34:11;98188.03;;;0.18;100.00
29733;BME280;16643;43.158;25.302;2023-01-09T02:37:02;98171.84;;;0.16;100.00
29733;BME280;16643;43.158;25.302;2023-01-09T02:44:28;98174.59;;;0.36;100.00
29733;BME280;16643;43.158;25.302;2023-01-09T02:49:28;98173.03;;;0.49;100.00
29733;BME280;16643;43.158;25.302;2023-01-09T02:52:00;98165.47;;;0.58;100.00
29733;BME280;16643;43.158;25.302;2023-01-09T02:54:39;98162.97;;;0.62;100.00
29733;BME280;16643;43.158;25.302;2023-01-09T02:59:35;98167.22;;;0.63;100.00
29733;BME280;16643;43.158;25.302;2023-01-09T03:09:35;98179.13;;;0.61;100.00
29733;BME280;16643;43.158;25.302;2023-01-09T03:12:03;98175.47;;;0.38;100.00
29733;BME280;16643;43.158;25.302;2023-01-09T03:14:31;98182.56;;;-0.12;100.00
29733;BME280;16643;43.158;25.302;2023-01-09T03:16:59;98181.03;;;-0.60;100.00
29733;BME280;16643;43.158;25.302;2023-01-09T03:19:27;98178.91;;;-0.87;100.00
29733;BME280;16643;43.158;25.302;2023-01-09T03:21:54;98187.22;;;-0.98;100.00
29733;BME280;16643;43.158;25.302;2023-01-09T03:24:20;98186.41;;;-0.97;100.00
29733;BME280;16643;43.158;25.302;2023-01-09T03:26:46;98175.56;;;-0.84;100.00
29733;BME280;16643;43.158;25.302;2023-01-09T03:29:11;98175.47;;;-0.92;100.00
29733;BME280;16643;43.158;25.302;2023-01-09T03:31:37;98188.69;;;-0.60;100.00
29733;BME280;16643;43.158;25.302;2023-01-09T03:34:02;98203.19;;;-0.56;100.00
29733;BME280;16643;43.158;25.302;2023-01-09T03:36:28;98205.16;;;-0.40;100.00
29733;BME280;16643;43.158;25.302;2023-01-09T03:38:53;98198.59;;;-0.21;100.00
29733;BME280;16643;43.158;25.302;2023-01-09T03:41:19;98202.13;;;-0.13;100.00
29733;BME280;16643;43.158;25.302;2023-01-09T03:43:44;98199.44;;;-0.22;100.00
29733;BME280;16643;43.158;25.302;2023-01-09T03:46:11;98207.94;;;-0.24;100.00
29733;BME280;16643;43.158;25.302;2023-01-09T03:48:37;98200.38;;;-0.17;100.00
29733;BME280;16643;43.158;25.302;2023-01-09T03:51:02;98199.59;;;-0.10;100.00
29733;BME280;16643;43.158;25.302;2023-01-09T03:53:28;98194.59;;;-0.02;100.00
29733;BME280;16643;43.158;25.302;2023-01-09T03:55:54;98202.34;;;0.04;100.00
29733;BME280;16643;43.158;25.302;2023-01-09T03:58:20;98196.38;;;0.04;100.00
29733;BME280;16643;43.158;25.302;2023-01-09T04:00:46;98207.44;;;0.04;100.00
29733;BME280;16643;43.158;25.302;2023-01-09T04:03:13;98202.38;;;0.07;100.00
29733;BME280;16643;43.158;25.302;2023-01-09T04:05:39;98203.28;;;0.12;100.00
29733;BME280;16643;43.158;25.302;2023-01-09T04:08:04;98199.03;;;0.11;100.00
29733;BME280;16643;43.158;25.302;2023-01-09T04:10:30;98195.63;;;0.11;100.00
29733;BME280;16643;43.158;25.302;2023-01-09T04:12:55;98197.31;;;0.12;100.00
29733;BME280;16643;43.158;25.302;2023-01-09T04:15:21;98193.06;;;0.09;100.00
29733;BME280;16643;43.158;25.302;2023-01-09T04:17:46;98200.63;;;0.03;100.00
29733;BME280;16643;43.158;25.302;2023-01-09T04:20:12;98215.44;;;-0.35;100.00
29733;BME280;16643;43.158;25.302;2023-01-09T04:22:38;98217.84;;;-0.43;100.00
29733;BME280;16643;43.158;25.302;2023-01-09T04:25:04;98223.78;;;-0.47;100.00
29733;BME280;16643;43.158;25.302;2023-01-09T04:27:29;98206.94;;;-0.32;100.00
29733;BME280;16643;43.158;25.302;2023-01-09T04:29:55;98212.06;;;-0.32;100.00
29733;BME280;16643;43.158;25.302;2023-01-09T04:32:20;98208.13;;;-0.66;100.00
29733;BME280;16643;43.158;25.302;2023-01-09T04:34:46;98222.81;;;-0.53;100.00
29733;BME280;16643;43.158;25.302;2023-01-09T04:37:11;98218.00;;;-0.32;100.00
29733;BME280;16643;43.158;25.302;2023-01-09T04:39:37;98221.53;;;-0.25;100.00
29733;BME280;16643;43.158;25.302;2023-01-09T04:42:02;98227.69;;;-0.10;100.00
29733;BME280;16643;43.158;25.302;2023-01-09T04:44:28;98224.38;;;-0.04;100.00
29733;BME280;16643;43.158;25.302;2023-01-09T04:46:54;98231.81;;;-0.19;100.00
29733;BME280;16643;43.158;25.302;2023-01-09T04:49:20;98228.19;;;-0.33;100.00
29733;BME280;16643;43.158;25.302;2023-01-09T04:51:46;98229.16;;;-0.27;100.00
29733;BME280;16643;43.158;25.302;2023-01-09T04:54:12;98225.81;;;-0.23;100.00
29733;BME280;16643;43.158;25.302;2023-01-09T04:56:37;98231.69;;;-0.28;100.00
29733;BME280;16643;43.158;25.302;2023-01-09T04:59:03;98229.75;;;-0.46;100.00
29733;BME280;16643;43.158;25.302;2023-01-09T05:01:29;98234.44;;;-0.72;100.00
29733;BME280;16643;43.158;25.302;2023-01-09T05:03:54;98230.34;;;-1.12;100.00
29733;BME280;16643;43.158;25.302;2023-01-09T05:06:20;98226.66;;;-1.28;100.00
29733;BME280;16643;43.158;25.302;2023-01-09T05:08:46;98230.00;;;-1.30;100.00
29733;BME280;16643;43.158;25.302;2023-01-09T05:11:11;98223.03;;;-0.94;100.00
29733;BME280;16643;43.158;25.302;2023-01-09T05:13:36;98224.13;;;-0.80;100.00
29733;BME280;16643;43.158;25.302;2023-01-09T05:16:02;98224.28;;;-0.67;100.00
29733;BME280;16643;43.158;25.302;2023-01-09T05:18:27;98226.09;;;-0.62;100.00
29733;BME280;16643;43.158;25.302;2023-01-09T05:20:53;98221.09;;;-0.54;100.00
29733;BME280;16643;43.158;25.302;2023-01-09T05:23:18;98233.00;;;-0.53;100.00
29733;BME280;16643;43.158;25.302;2023-01-09T05:25:44;98211.75;;;-0.54;100.00
29733;BME280;16643;43.158;25.302;2023-01-09T05:28:09;98221.22;;;-0.47;100.00
29733;BME280;16643;43.158;25.302;2023-01-09T05:30:35;98225.47;;;-0.47;100.00
29733;BME280;16643;43.158;25.302;2023-01-09T05:33:00;98221.19;;;-0.48;100.00
29733;BME280;16643;43.158;25.302;2023-01-09T05:35:26;98216.97;;;-0.46;100.00
29733;BME280;16643;43.158;25.302;2023-01-09T05:37:51;98223.81;;;-0.42;100.00
29733;BME280;16643;43.158;25.302;2023-01-09T05:40:17;98223.09;;;-0.35;100.00
29733;BME280;16643;43.158;25.302;2023-01-09T05:42:42;98223.06;;;-0.37;100.00
29733;BME280;16643;43.158;25.302;2023-01-09T05:45:08;98217.16;;;-0.32;100.00
29733;BME280;16643;43.158;25.302;2023-01-09T05:47:33;98211.94;;;-0.42;100.00
29733;BME280;16643;43.158;25.302;2023-01-09T05:49:59;98216.09;;;-0.48;100.00
29733;BME280;16643;43.158;25.302;2023-01-09T05:52:24;98216.78;;;-0.58;100.00
29733;BME280;16643;43.158;25.302;2023-01-09T05:54:50;98213.31;;;-0.63;100.00
29733;BME280;16643;43.158;25.302;2023-01-09T05:57:15;98213.38;;;-0.59;100.00
29733;BME280;16643;43.158;25.302;2023-01-09T05:59:41;98217.00;;;-0.43;100.00
29733;BME280;16643;43.158;25.302;2023-01-09T06:02:06;98212.38;;;-0.67;100.00
29733;BME280;16643;43.158;25.302;2023-01-09T06:04:32;98209.13;;;-0.58;100.00
29733;BME280;16643;43.158;25.302;2023-01-09T06:06:57;98211.94;;;-0.42;100.00
29733;BME280;16643;43.158;25.302;2023-01-09T06:09:23;98215.31;;;-0.43;100.00
29733;BME280;16643;43.158;25.302;2023-01-09T06:11:48;98206.94;;;-0.32;100.00
29733;BME280;16643;43.158;25.302;2023-01-09T06:14:14;98195.13;;;-0.26;100.00
29733;BME280;16643;43.158;25.302;2023-01-09T06:16:39;98194.28;;;-0.26;100.00
29733;BME280;16643;43.158;25.302;2023-01-09T06:19:04;98200.25;;;-0.26;100.00
29733;BME280;16643;43.158;25.302;2023-01-09T06:21:30;98177.16;;;-0.33;100.00
29733;BME280;16643;43.158;25.302;2023-01-09T06:23:56;98174.44;;;-0.44;100.00
29733;BME280;16643;43.158;25.302;2023-01-09T06:26:22;98172.50;;;-0.62;100.00
29733;BME280;16643;43.158;25.302;2023-01-09T06:28:47;98174.28;;;-0.58;100.00
29733;BME280;16643;43.158;25.302;2023-01-09T06:31:13;98168.59;;;-0.39;100.00
29733;BME280;16643;43.158;25.302;2023-01-09T06:33:38;98171.41;;;-0.19;100.00
29733;BME280;16643;43.158;25.302;2023-01-09T06:36:04;98180.94;;;-0.06;100.00
29733;BME280;16643;43.158;25.302;2023-01-09T06:38:29;98190.44;;;0.05;100.00
29733;BME280;16643;43.158;25.302;2023-01-09T06:40:55;98196.53;;;0.16;100.00
29733;BME280;16643;43.158;25.302;2023-01-09T06:43:20;98188.16;;;0.27;100.00
29733;BME280;16643;43.158;25.302;2023-01-09T06:45:46;98189.13;;;0.39;100.00
29733;BME280;16643;43.158;25.302;2023-01-09T06:48:11;98182.38;;;0.44;100.00
29733;BME280;16643;43.158;25.302;2023-01-09T06:50:37;98186.44;;;0.26;100.00
29733;BME280;16643;43.158;25.302;2023-01-09T06:53:02;98181.34;;;0.28;100.00
29733;BME280;16643;43.158;25.302;2023-01-09T06:55:27;98184.06;;;0.42;100.00
29733;BME280;16643;43.158;25.302;2023-01-09T06:57:53;98182.56;;;0.62;100.00
29733;BME280;16643;43.158;25.302;2023-01-09T07:00:19;98180.03;;;0.63;100.00
29733;BME280;16643;43.158;25.302;2023-01-09T07:02:44;98179.63;;;0.27;100.00
29733;BME280;16643;43.158;25.302;2023-01-09T07:05:10;98169.41;;;0.28;100.00
29733;BME280;16643;43.158;25.302;2023-01-09T07:07:36;98169.19;;;0.09;100.00
29733;BME280;16643;43.158;25.302;2023-01-09T07:10:02;98180.56;;;0.36;100.00
29733;BME280;16643;43.158;25.302;2023-01-09T07:12:27;98163.59;;;0.42;100.00
29733;BME280;16643;43.158;25.302;2023-01-09T07:14:53;98167.19;;;0.59;100.00
29733;BME280;16643;43.158;25.302;2023-01-09T07:17:18;98158.75;;;0.66;100.00
29733;BME280;16643;43.158;25.302;2023-01-09T07:19:44;98154.56;;;0.76;100.00
29733;BME280;16643;43.158;25.302;2023-01-09T07:22:09;98152.13;;;0.91;100.00
29733;BME280;16643;43.158;25.302;2023-01-09T07:24:35;98148.81;;;0.99;100.00
29733;BME280;16643;43.158;25.302;2023-01-09T07:27:00;98135.25;;;1.11;100.00
29733;BME280;16643;43.158;25.302;2023-01-09T07:29:26;98137.84;;;1.17;100.00
29733;BME280;16643;43.158;25.302;2023-01-09T07:31:51;98140.56;;;1.41;100.00
29733;BME280;16643;43.158;25.302;2023-01-09T07:34:17;98135.50;;;1.46;100.00
29733;BME280;16643;43.158;25.302;2023-01-09T07:36:42;98133.88;;;1.62;100.00
29733;BME280;16643;43.158;25.302;2023-01-09T07:39:11;98122.78;;;1.66;100.00
29733;BME280;16643;43.158;25.302;2023-01-09T07:41:36;98125.38;;;1.72;100.00
29733;BME280;16643;43.158;25.302;2023-01-09T07:44:02;98130.59;;;1.89;100.00
29733;BME280;16643;43.158;25.302;2023-01-09T07:46:27;98120.41;;;2.01;100.00
29733;BME280;16643;43.158;25.302;2023-01-09T07:48:53;98119.59;;;2.18;100.00
29733;BME280;16643;43.158;25.302;2023-01-09T07:51:18;98124.72;;;2.20;100.00
29733;BME280;16643;43.158;25.302;2023-01-09T07:53:43;98123.06;;;2.49;100.00
29733;BME280;16643;43.158;25.302;2023-01-09T07:56:09;98126.56;;;2.88;100.00
29733;BME280;16643;43.158;25.302;2023-01-09T07:58:34;98130.81;;;3.07;100.00
29733;BME280;16643;43.158;25.302;2023-01-09T08:01:00;98131.69;;;3.00;100.00
29733;BME280;16643;43.158;25.302;2023-01-09T08:03:25;98122.25;;;3.37;99.91
29733;BME280;16643;43.158;25.302;2023-01-09T08:05:51;98123.78;;;3.97;98.63
29733;BME280;16643;43.158;25.302;2023-01-09T08:08:16;98125.38;;;4.21;97.14
29733;BME280;16643;43.158;25.302;2023-01-09T08:10:42;98119.88;;;4.85;90.52
29733;BME280;16643;43.158;25.302;2023-01-09T08:13:08;98137.06;;;4.77;90.26
29733;BME280;16643;43.158;25.302;2023-01-09T08:15:33;98125.31;;;4.38;92.22
29733;BME280;16643;43.158;25.302;2023-01-09T08:17:59;98121.25;;;3.87;94.07
29733;BME280;16643;43.158;25.302;2023-01-09T08:20:25;98117.84;;;3.77;94.29
29733;BME280;16643;43.158;25.302;2023-01-09T08:22:51;98122.19;;;3.55;96.46
29733;BME280;16643;43.158;25.302;2023-01-09T08:25:18;98118.78;;;3.50;95.49
29733;BME280;16643;43.158;25.302;2023-01-09T08:27:44;98118.81;;;3.34;96.25
29733;BME280;16643;43.158;25.302;2023-01-09T08:30:10;98116.22;;;3.44;99.15
29733;BME280;16643;43.158;25.302;2023-01-09T08:32:36;98110.88;;;4.08;96.09
29733;BME280;16643;43.158;25.302;2023-01-09T08:35:02;98109.09;;;4.24;95.18
29733;BME280;16643;43.158;25.302;2023-01-09T08:37:27;98093.59;;;4.36;97.49
29733;BME280;16643;43.158;25.302;2023-01-09T08:39:53;98098.59;;;4.60;93.55
29733;BME280;16643;43.158;25.302;2023-01-09T08:42:19;98097.66;;;4.67;94.47
29733;BME280;16643;43.158;25.302;2023-01-09T08:45:03;98099.28;;;4.81;96.21
29733;BME280;16643;43.158;25.302;2023-01-09T08:47:47;98095.72;;;4.97;92.54
29733;BME280;16643;43.158;25.302;2023-01-09T08:50:13;98095.94;;;4.71;93.81
29733;BME280;16643;43.158;25.302;2023-01-09T08:52:41;98100.94;;;4.88;94.07
29733;BME280;16643;43.158;25.302;2023-01-09T08:55:06;98105.31;;;4.78;92.90
29733;BME280;16643;43.158;25.302;2023-01-09T08:57:32;98101.91;;;4.76;92.34
29733;BME280;16643;43.158;25.302;2023-01-09T08:59:57;98103.59;;;4.79;93.37
29733;BME280;16643;43.158;25.302;2023-01-09T09:02:23;98090.44;;;5.12;93.11
29733;BME280;16643;43.158;25.302;2023-01-09T09:04:49;98084.59;;;4.96;93.10
29733;BME280;16643;43.158;25.302;2023-01-09T09:07:17;98090.25;;;5.32;92.98
29733;BME280;16643;43.158;25.302;2023-01-09T09:09:52;98098.59;;;5.58;94.00
29733;BME280;16643;43.158;25.302;2023-01-09T09:12:18;98097.56;;;5.73;91.97
29733;BME280;16643;43.158;25.302;2023-01-09T09:14:44;98093.06;;;5.92;90.49
29733;BME280;16643;43.158;25.302;2023-01-09T09:17:28;98088.69;;;5.98;91.27
29733;BME280;16643;43.158;25.302;2023-01-09T09:19:53;98088.44;;;6.19;89.13
29733;BME280;16643;43.158;25.302;2023-01-09T09:22:19;98082.97;;;6.42;90.59
29733;BME280;16643;43.158;25.302;2023-01-09T09:24:44;98080.09;;;6.61;88.35
29733;BME280;16643;43.158;25.302;2023-01-09T09:27:09;98094.22;;;6.37;85.09
29733;BME280;16643;43.158;25.302;2023-01-09T09:29:35;98093.53;;;5.49;87.88
29733;BME280;16643;43.158;25.302;2023-01-09T09:32:00;98084.25;;;5.31;92.76
29733;BME280;16643;43.158;25.302;2023-01-09T09:34:26;98079.78;;;5.48;93.60
29733;BME280;16643;43.158;25.302;2023-01-09T09:36:51;98082.97;;;5.73;91.56
29733;BME280;16643;43.158;25.302;2023-01-09T09:39:17;98072.53;;;5.81;91.30
29733;BME280;16643;43.158;25.302;2023-01-09T09:41:51;98057.88;;;5.86;92.25
29733;BME280;16643;43.158;25.302;2023-01-09T09:49:43;98062.31;;;6.42;88.49
29733;BME280;16643;43.158;25.302;2023-01-09T09:52:26;98058.56;;;6.63;87.53
29733;BME280;16643;43.158;25.302;2023-01-09T09:54:53;98057.41;;;6.79;85.64
29733;BME280;16643;43.158;25.302;2023-01-09T09:57:24;98055.50;;;6.92;88.16
29733;BME280;16643;43.158;25.302;2023-01-09T09:59:53;98042.19;;;7.15;85.06
29733;BME280;16643;43.158;25.302;2023-01-09T10:02:24;98049.50;;;6.88;85.01
29733;BME280;16643;43.158;25.302;2023-01-09T10:04:54;98049.50;;;6.90;85.21
29733;BME280;16643;43.158;25.302;2023-01-09T10:07:23;98045.81;;;7.03;85.66
29733;BME280;16643;43.158;25.302;2023-01-09T10:09:52;98040.56;;;6.57;86.96
29733;BME280;16643;43.158;25.302;2023-01-09T10:12:32;98032.28;;;6.89;86.94
29733;BME280;16643;43.158;25.302;2023-01-09T10:15:01;98043.00;;;6.66;87.01
29733;BME280;16643;43.158;25.302;2023-01-09T10:30:36;98021.94;;;6.90;88.47
29733;BME280;16643;43.158;25.302;2023-01-09T10:38:22;98026.72;;;6.63;87.57
29733;BME280;16643;43.158;25.302;2023-01-09T10:40:59;98028.06;;;6.85;86.54
29733;BME280;16643;43.158;25.302;2023-01-09T10:43:29;98021.00;;;6.95;87.03
29733;BME280;16643;43.158;25.302;2023-01-09T10:46:00;98014.25;;;6.87;85.95
29733;BME280;16643;43.158;25.302;2023-01-09T10:48:36;98018.28;;;7.02;85.25
29733;BME280;16643;43.158;25.302;2023-01-09T10:51:03;98016.22;;;6.72;84.74
29733;BME280;16643;43.158;25.302;2023-01-09T10:53:33;98012.91;;;6.65;86.13
29733;BME280;16643;43.158;25.302;2023-01-09T10:56:25;98006.72;;;6.74;87.05
29733;BME280;16643;43.158;25.302;2023-01-09T10:58:49;98010.06;;;6.79;86.26
29733;BME280;16643;43.158;25.302;2023-01-09T11:01:17;98005.19;;;6.62;87.17
29733;BME280;16643;43.158;25.302;2023-01-09T11:03:47;98008.53;;;6.69;86.34
29733;BME280;16643;43.158;25.302;2023-01-09T11:06:22;98013.00;;;6.57;86.22
29733;BME280;16643;43.158;25.302;2023-01-09T11:08:50;98000.03;;;6.05;87.70
29733;BME280;16643;43.158;25.302;2023-01-09T11:14:25;97986.66;;;5.05;94.53
29733;BME280;16643;43.158;25.302;2023-01-09T11:16:58;97985.84;;;4.97;96.37
29733;BME280;16643;43.158;25.302;2023-01-09T11:19:24;97992.56;;;5.14;96.22
29733;BME280;16643;43.158;25.302;2023-01-09T11:21:50;97991.34;;;5.43;93.51
29733;BME280;16643;43.158;25.302;2023-01-09T11:26:41;97968.81;;;5.61;92.61
29733;BME280;16643;43.158;25.302;2023-01-09T11:29:16;97970.53;;;5.62;94.04
29733;BME280;16643;43.158;25.302;2023-01-09T11:31:49;97967.72;;;5.77;91.67
29733;BME280;16643;43.158;25.302;2023-01-09T11:34:15;97965.56;;;5.45;93.86
29733;BME280;16643;43.158;25.302;2023-01-09T11:36:41;97956.22;;;5.38;93.52
29733;BME280;16643;43.158;25.302;2023-01-09T11:39:43;97964.50;;;5.61;93.82
29733;BME280;16643;43.158;25.302;2023-01-09T11:42:03;97953.53;;;5.47;94.86
29733;BME280;16643;43.158;25.302;2023-01-09T11:44:29;97945.53;;;5.65;92.12
29733;BME280;16643;43.158;25.302;2023-01-09T11:46:55;97943.81;;;5.66;94.12
29733;BME280;16643;43.158;25.302;2023-01-09T11:49:24;97939.00;;;6.06;93.66
29733;BME280;16643;43.158;25.302;2023-01-09T11:54:34;97933.25;;;6.90;88.96
29733;BME280;16643;43.158;25.302;2023-01-09T11:57:01;97932.84;;;7.11;86.04
29733;BME280;16643;43.158;25.302;2023-01-09T11:59:27;97937.50;;;6.94;87.50
29733;BME280;16643;43.158;25.302;2023-01-09T12:12:14;97900.38;;;7.41;86.92
29733;BME280;16643;43.158;25.302;2023-01-09T12:22:25;97876.09;;;7.47;85.73
29733;BME280;16643;43.158;25.302;2023-01-09T12:52:32;97845.72;;;8.29;82.18
29733;BME280;16643;43.158;25.302;2023-01-09T12:55:13;97837.91;;;8.30;81.41
29733;BME280;16643;43.158;25.302;2023-01-09T12:57:45;97832.22;;;8.50;81.54
29733;BME280;16643;43.158;25.302;2023-01-09T13:02:46;97824.13;;;8.28;83.31
29733;BME280;16643;43.158;25.302;2023-01-09T13:08:04;97823.53;;;8.19;84.42
29733;BME280;16643;43.158;25.302;2023-01-09T13:10:33;97818.19;;;7.91;85.31
29733;BME280;16643;43.158;25.302;2023-01-09T13:13:21;97820.34;;;7.74;86.18
29733;BME280;16643;43.158;25.302;2023-01-09T13:15:53;97819.16;;;7.87;84.15
29733;BME280;16643;43.158;25.302;2023-01-09T13:18:26;97824.38;;;7.85;86.20
29733;BME280;16643;43.158;25.302;2023-01-09T13:20:54;97831.88;;;7.96;85.63
29733;BME280;16643;43.158;25.302;2023-01-09T13:23:41;97825.63;;;8.03;84.28
29733;BME280;16643;43.158;25.302;2023-01-09T13:26:09;97836.41;;;7.86;85.38
29733;BME280;16643;43.158;25.302;2023-01-09T13:28:57;97830.38;;;7.86;85.36
29733;BME280;16643;43.158;25.302;2023-01-09T13:34:00;97832.03;;;7.90;85.12
29733;BME280;16643;43.158;25.302;2023-01-09T13:36:28;97827.88;;;7.83;85.19
29733;BME280;16643;43.158;25.302;2023-01-09T13:38:54;97822.31;;;7.62;86.43
29733;BME280;16643;43.158;25.302;2023-01-09T13:41:20;97822.81;;;7.41;87.25
29733;BME280;16643;43.158;25.302;2023-01-09T13:46:43;97810.25;;;6.84;91.47
29733;BME280;16643;43.158;25.302;2023-01-09T13:49:31;97821.44;;;6.85;91.57
29733;BME280;16643;43.158;25.302;2023-01-09T13:52:04;97810.09;;;6.90;91.12
29733;BME280;16643;43.158;25.302;2023-01-09T13:55:21;97819.31;;;7.04;90.55
29733;BME280;16643;43.158;25.302;2023-01-09T13:59:44;97810.22;;;7.26;89.47
29733;BME280;16643;43.158;25.302;2023-01-09T14:04:55;97820.94;;;7.48;88.51
29733;BME280;16643;43.158;25.302;2023-01-09T14:07:22;97826.19;;;7.45;88.05
29733;BME280;16643;43.158;25.302;2023-01-09T14:09:55;97827.97;;;7.41;88.60
29733;BME280;16643;43.158;25.302;2023-01-09T14:12:21;97821.22;;;7.34;87.67
29733;BME280;16643;43.158;25.302;2023-01-09T14:14:47;97820.16;;;7.44;85.42
29733;BME280;16643;43.158;25.302;2023-01-09T14:17:14;97820.09;;;7.09;86.14
29733;BME280;16643;43.158;25.302;2023-01-09T14:19:40;97803.91;;;6.56;91.00
29733;BME280;16643;43.158;25.302;2023-01-09T14:22:06;97807.22;;;6.64;91.28
29733;BME280;16643;43.158;25.302;2023-01-09T14:24:44;97803.19;;;6.49;91.39
29733;BME280;16643;43.158;25.302;2023-01-09T14:30:15;97787.88;;;5.93;94.65
29733;BME280;16643;43.158;25.302;2023-01-09T14:32:43;97792.72;;;6.11;92.63
29733;BME280;16643;43.158;25.302;2023-01-09T14:35:11;97798.66;;;6.16;93.03
29733;BME280;16643;43.158;25.302;2023-01-09T14:37:39;97799.53;;;6.13;93.32
29733;BME280;16643;43.158;25.302;2023-01-09T14:40:05;97791.75;;;6.16;92.57
29733;BME280;16643;43.158;25.302;2023-01-09T14:42:31;97788.66;;;5.98;92.45
29733;BME280;16643;43.158;25.302;2023-01-09T14:45:05;97773.63;;;5.69;94.78
29733;BME280;16643;43.158;25.302;2023-01-09T14:47:41;97771.22;;;5.60;95.92
29733;BME280;16643;43.158;25.302;2023-01-09T14:50:14;97781.50;;;5.61;95.58
29733;BME280;16643;43.158;25.302;2023-01-09T14:52:48;97776.31;;;5.64;96.19
29733;BME280;16643;43.158;25.302;2023-01-09T14:55:21;97772.59;;;5.80;95.43
29733;BME280;16643;43.158;25.302;2023-01-09T14:57:48;97762.34;;;5.76;96.31
29733;BME280;16643;43.158;25.302;2023-01-09T15:00:19;97753.00;;;5.69;95.53
29733;BME280;16643;43.158;25.302;2023-01-09T15:02:45;97756.50;;;5.65;96.09
29733;BME280;16643;43.158;25.302;2023-01-09T15:05:12;97761.88;;;5.53;96.47
29733;BME280;16643;43.158;25.302;2023-01-09T15:07:43;97760.91;;;5.58;96.02